Time;durP1;ratioP1;P1;durP2;ratioP2;P2;SDS_P1;SDS_P2;PMS_P1;PMS_P2;Temp;Humidity;BMP_temperature;BMP_pressure;BME280_temperature;BME280_humidity;BME280_pressure;Samples;Min_cycle;Max_cycle;Signal;HPM_P1;HPM_P2
2023/01/19 00:01:47;;;;;;;15.73;4.37;;;;;;;15.81;100.00;150010.75;5051645;28;20217;-64
2023/01/19 00:04:16;;;;;;;9.90;3.23;;;;;;;15.90;100.00;150034.88;5051590;28;20231;-63
2023/01/19 00:06:44;;;;;;;13.13;4.33;;;;;;;15.92;100.00;150039.94;5071069;28;20193;-64
2023/01/19 00:09:11;;;;;;;15.97;4.53;;;;;;;15.81;100.00;150010.75;5071396;28;20304;-64
2023/01/19 00:11:38;;;;;;;15.43;4.40;;;;;;;16.01;100.00;150061.53;5071606;28;20564;-63
2023/01/19 00:14:06;;;;;;;17.63;3.87;;;;;;;15.92;100.00;150038.66;5071594;28;20560;-63
2023/01/19 00:16:33;;;;;;;17.87;4.60;;;;;;;16.09;100.00;150080.56;5071446;28;20205;-64
2023/01/19 00:18:59;;;;;;;16.27;3.97;;;;;;;16.12;100.00;150089.47;5070980;28;20204;-64
2023/01/19 00:21:26;;;;;;;14.97;4.20;;;;;;;16.10;100.00;150083.09;5071017;28;20185;-65
2023/01/19 00:23:54;;;;;;;19.03;4.33;;;;;;;16.14;100.00;150094.53;5071269;28;20189;-63
2023/01/19 00:26:22;;;;;;;9.83;4.07;;;;;;;16.02;100.00;150064.06;5071217;28;20181;-63
2023/01/19 00:28:49;;;;;;;15.87;3.80;;;;;;;16.08;100.00;150078.06;5071142;28;20238;-63
2023/01/19 00:31:19;;;;;;;14.47;4.17;;;;;;;16.06;100.00;150074.22;5069105;28;20197;-64
2023/01/19 00:33:47;;;;;;;17.63;4.90;;;;;;;16.11;100.00;150085.66;5071389;28;20679;-63
2023/01/19 00:36:15;;;;;;;18.70;4.67;;;;;;;16.05;100.00;150071.69;5072341;28;20205;-64
2023/01/19 00:38:42;;;;;;;11.50;4.27;;;;;;;16.12;100.00;150088.22;5075135;28;20189;-64
2023/01/19 00:41:10;;;;;;;10.90;3.93;;;;;;;16.12;100.00;150088.22;5072942;28;20192;-63
2023/01/19 00:43:36;;;;;;;12.97;3.80;;;;;;;16.12;100.00;150088.22;5075223;28;20267;-64
2023/01/19 00:46:03;;;;;;;8.60;3.80;;;;;;;15.98;100.00;150055.19;5074683;28;20295;-64
2023/01/19 00:48:29;;;;;;;10.37;3.90;;;;;;;16.10;100.00;150084.38;5074772;28;20195;-64
2023/01/19 00:50:56;;;;;;;14.33;3.53;;;;;;;15.75;100.00;149996.78;5075073;28;20276;-64
2023/01/19 00:53:23;;;;;;;18.63;4.37;;;;;;;15.95;100.00;150047.56;5075118;28;20196;-63
2023/01/19 00:55:50;;;;;;;16.20;3.43;;;;;;;15.85;100.00;150022.19;5074661;28;20206;-64
2023/01/19 00:58:18;;;;;;;10.40;3.67;;;;;;;15.78;100.00;150004.44;5074695;28;20188;-64
2023/01/19 01:00:45;;;;;;;11.83;3.90;;;;;;;15.83;100.00;150015.81;5074924;28;20259;-63
2023/01/19 01:03:12;;;;;;;13.77;3.97;;;;;;;15.63;100.00;149965.06;5074642;28;20227;-64
2023/01/19 01:05:41;;;;;;;12.30;2.97;;;;;;;15.65;100.00;149971.44;5074321;28;20207;-63
2023/01/19 01:08:08;;;;;;;12.07;3.73;;;;;;;15.73;100.00;149991.75;5074518;28;20613;-64
2023/01/19 01:10:34;;;;;;;11.27;3.53;;;;;;;15.69;100.00;149980.31;5074640;28;20193;-63
2023/01/19 01:13:01;;;;;;;13.60;3.57;;;;;;;15.63;100.00;149966.34;5074859;28;20672;-64
2023/01/19 01:15:30;;;;;;;9.20;3.73;;;;;;;15.68;100.00;149977.75;5074381;28;20207;-64
2023/01/19 01:17:56;;;;;;;10.77;4.20;;;;;;;15.66;100.00;149973.94;5074839;28;20505;-63
2023/01/19 01:20:27;;;;;;;12.00;3.97;;;;;;;15.68;100.00;149979.03;5074330;28;20192;-63
2023/01/19 01:22:56;;;;;;;11.43;3.73;;;;;;;15.65;100.00;149970.16;5074504;28;20547;-64
2023/01/19 01:25:25;;;;;;;15.63;3.70;;;;;;;15.70;100.00;149984.09;5071684;28;20227;-64
2023/01/19 01:27:53;;;;;;;16.63;4.23;;;;;;;15.71;100.00;149986.63;5074179;28;20242;-62
2023/01/19 01:30:21;;;;;;;15.80;3.60;;;;;;;15.71;100.00;149986.63;5074528;28;20575;-63
2023/01/19 01:32:49;;;;;;;10.10;3.47;;;;;;;15.72;100.00;149987.91;5074183;28;20223;-64
2023/01/19 01:35:17;;;;;;;13.37;4.20;;;;;;;15.69;100.00;149981.59;5074022;28;20232;-64
2023/01/19 01:37:44;;;;;;;19.17;4.30;;;;;;;15.61;100.00;149961.28;5074330;28;20738;-64
2023/01/19 01:40:12;;;;;;;11.93;3.50;;;;;;;15.70;100.00;149984.09;5074272;28;20197;-63
2023/01/19 01:42:41;;;;;;;8.60;3.87;;;;;;;15.68;100.00;149979.03;5073911;28;20192;-64
2023/01/19 01:45:29;;;;;;;13.03;4.13;;;;;;;15.68;100.00;149977.75;5074014;28;20192;-63
2023/01/19 01:48:04;;;;;;;14.43;4.37;;;;;;;15.50;100.00;149934.63;5073530;28;20185;-64
2023/01/19 01:50:34;;;;;;;11.27;3.47;;;;;;;15.77;100.00;150000.63;5074017;28;20191;-64
2023/01/19 01:53:05;;;;;;;10.90;3.50;;;;;;;15.77;100.00;150001.88;5073862;28;20181;-63
2023/01/19 01:55:35;;;;;;;10.57;3.83;;;;;;;15.56;100.00;149947.31;5071242;28;20216;-63
2023/01/19 01:58:05;;;;;;;18.77;4.77;;;;;;;15.82;100.00;150014.59;5073336;28;20647;-63
2023/01/19 02:02:49;;;;;;;12.13;3.90;;;;;;;15.79;100.00;150006.94;5073494;28;20189;-63
2023/01/19 02:03:21;;;;;;;8.00;3.60;;;;;;;15.77;100.00;150001.88;5073319;28;20279;-64
2023/01/19 02:05:48;;;;;;;12.03;3.60;;;;;;;15.94;100.00;150045.03;5073702;28;20257;-64
2023/01/19 02:13:49;;;;;;;12.97;3.70;;;;;;;15.89;100.00;150032.34;5073750;28;20229;-64
2023/01/19 02:16:17;;;;;;;16.57;3.87;;;;;;;15.92;100.00;150039.94;5073442;28;20212;-63
2023/01/19 02:18:46;;;;;;;13.37;4.20;;;;;;;15.88;100.00;150029.78;5073536;28;20599;-62
2023/01/19 02:21:18;;;;;;;12.67;3.90;;;;;;;15.79;100.00;150006.94;5073748;28;20185;-63
2023/01/19 02:23:50;;;;;;;14.00;4.57;;;;;;;15.80;100.00;150009.50;5071872;28;20235;-64
2023/01/19 02:26:20;;;;;;;10.07;3.63;;;;;;;15.86;100.00;150024.75;5072445;28;20193;-64
2023/01/19 02:28:52;;;;;;;7.77;3.73;;;;;;;15.80;100.00;150008.22;5070460;28;20201;-64
2023/01/19 02:31:19;;;;;;;14.83;3.93;;;;;;;15.89;100.00;150032.34;5070470;28;20579;-63
2023/01/19 02:33:46;;;;;;;14.77;4.80;;;;;;;15.94;100.00;150045.03;5073458;28;20201;-63
2023/01/19 02:36:16;;;;;;;17.23;4.77;;;;;;;15.91;100.00;150036.16;5072916;28;20215;-63
2023/01/19 02:38:45;;;;;;;9.43;3.77;;;;;;;15.91;100.00;150036.16;5073227;28;20650;-64
2023/01/19 02:41:18;;;;;;;13.73;3.83;;;;;;;15.88;100.00;150028.50;5070488;28;20311;-64
2023/01/19 02:43:47;;;;;;;15.10;4.00;;;;;;;15.85;100.00;150022.19;5072762;28;20272;-64
2023/01/19 02:46:14;;;;;;;19.10;3.67;;;;;;;15.86;100.00;150023.47;5072787;28;20185;-64
2023/01/19 02:48:41;;;;;;;11.50;4.33;;;;;;;15.94;100.00;150043.78;5073005;28;20189;-63
2023/01/19 02:51:14;;;;;;;12.30;4.07;;;;;;;15.93;100.00;150041.22;5072622;28;20287;-63
2023/01/19 02:54:00;;;;;;;15.10;4.43;;;;;;;15.99;100.00;150056.47;5072932;28;20200;-63
2023/01/19 02:56:51;;;;;;;9.30;4.17;;;;;;;15.90;100.00;150034.88;5066425;28;20718;-63
2023/01/19 02:59:29;;;;;;;10.47;3.97;;;;;;;15.85;100.00;150020.91;5071705;28;20177;-64
2023/01/19 03:02:16;;;;;;;16.83;5.33;;;;;;;15.92;100.00;150038.66;5072956;28;20188;-64
2023/01/19 03:04:55;;;;;;;14.40;4.33;;;;;;;15.88;100.00;150029.78;5069680;28;20239;-63
2023/01/19 03:07:30;;;;;;;11.70;4.50;;;;;;;15.88;100.00;150029.78;5072416;28;20188;-63
2023/01/19 03:10:03;;;;;;;16.87;5.00;;;;;;;15.88;100.00;150028.50;5072217;28;20184;-64
2023/01/19 03:12:40;;;;;;;17.20;4.40;;;;;;;15.94;100.00;150043.78;5072505;28;20628;-63
2023/01/19 03:15:16;;;;;;;18.60;4.90;;;;;;;15.69;100.00;149980.31;5072196;28;20187;-64
2023/01/19 03:17:45;;;;;;;14.57;4.37;;;;;;;15.78;100.00;150004.44;5070008;28;20220;-63
2023/01/19 03:20:17;;;;;;;16.90;4.80;;;;;;;15.60;100.00;149958.72;5072139;28;20189;-63
2023/01/19 03:22:45;;;;;;;13.37;4.30;;;;;;;15.85;100.00;150022.19;5072478;28;20733;-64
2023/01/19 03:25:14;;;;;;;10.90;4.50;;;;;;;15.85;100.00;150020.91;5072045;28;20276;-64
2023/01/19 03:27:44;;;;;;;14.97;3.97;;;;;;;15.64;100.00;149968.88;5072300;28;20272;-64
2023/01/19 03:30:17;;;;;;;14.93;4.40;;;;;;;15.80;100.00;150009.50;5071879;28;20181;-63
2023/01/19 03:32:52;;;;;;;11.80;4.37;;;;;;;15.74;100.00;149994.25;5068823;28;20192;-64
2023/01/19 03:35:22;;;;;;;23.50;5.33;;;;;;;15.80;100.00;150009.50;5071705;28;20315;-64
2023/01/19 03:37:52;;;;;;;19.10;4.60;;;;;;;15.81;100.00;150010.75;5071572;28;20216;-63
2023/01/19 03:40:20;;;;;;;13.07;4.57;;;;;;;15.73;100.00;149990.47;5071987;28;20614;-63
2023/01/19 03:42:50;;;;;;;27.47;5.83;;;;;;;15.78;100.00;150004.44;5071832;28;20666;-63
2023/01/19 03:45:18;;;;;;;13.43;4.40;;;;;;;15.85;100.00;150020.91;5072079;28;20575;-63
2023/01/19 03:47:45;;;;;;;17.43;4.37;;;;;;;15.82;100.00;150014.59;5071709;28;20189;-64
2023/01/19 03:50:24;;;;;;;17.20;4.63;;;;;;;15.78;100.00;150003.16;5071603;28;20189;-64
2023/01/19 03:53:01;;;;;;;14.50;5.27;;;;;;;15.52;100.00;149939.72;5071823;28;20603;-63
2023/01/19 03:55:27;;;;;;;22.03;4.80;;;;;;;15.80;100.00;150009.50;5071430;28;20184;-65
2023/01/19 03:57:56;;;;;;;17.73;4.77;;;;;;;15.83;100.00;150017.09;5071138;28;20220;-63
2023/01/19 04:00:23;;;;;;;13.30;4.40;;;;;;;15.69;100.00;149981.59;5072017;28;20679;-63
2023/01/19 04:02:49;;;;;;;19.00;5.23;;;;;;;15.76;100.00;149999.34;5071404;28;20185;-64
2023/01/19 04:05:17;;;;;;;11.03;4.40;;;;;;;15.76;100.00;149998.06;5071440;28;20219;-64
2023/01/19 04:07:44;;;;;;;15.97;5.13;;;;;;;15.63;100.00;149965.06;5071926;28;20215;-63
2023/01/19 04:10:11;;;;;;;20.03;5.27;;;;;;;15.72;100.00;149989.19;5071559;28;20562;-64
2023/01/19 04:12:39;;;;;;;23.07;5.30;;;;;;;15.79;100.00;150006.94;5071406;28;20185;-64
2023/01/19 04:15:08;;;;;;;13.57;5.17;;;;;;;15.84;100.00;150019.63;5071276;28;20230;-64
2023/01/19 04:17:35;;;;;;;13.80;5.30;;;;;;;15.89;100.00;150032.34;5071924;28;20671;-64
2023/01/19 04:20:01;;;;;;;20.23;4.90;;;;;;;15.89;100.00;150031.06;5069099;28;20193;-65
2023/01/19 04:22:29;;;;;;;24.63;6.30;;;;;;;15.84;100.00;150019.63;5071681;28;20657;-64
2023/01/19 04:24:55;;;;;;;24.03;4.53;;;;;;;15.80;100.00;150009.50;5071501;28;20284;-64
2023/01/19 04:27:23;;;;;;;18.70;4.83;;;;;;;15.67;100.00;149975.22;5071537;28;20200;-63
2023/01/19 04:29:50;;;;;;;17.70;5.40;;;;;;;15.77;100.00;150000.63;5071436;28;20184;-63
2023/01/19 04:32:18;;;;;;;17.80;4.90;;;;;;;15.71;100.00;149986.63;5071666;28;20197;-63
2023/01/19 04:34:45;;;;;;;17.77;5.40;;;;;;;15.53;100.00;149942.22;5071096;28;20324;-63
2023/01/19 04:37:12;;;;;;;18.00;5.47;;;;;;;15.61;100.00;149960.00;5069633;28;20212;-64
2023/01/19 04:39:39;;;;;;;16.90;5.33;;;;;;;15.64;100.00;149967.63;5070907;28;20185;-64
2023/01/19 04:42:06;;;;;;;19.37;5.27;;;;;;;15.70;100.00;149984.09;5068302;28;20632;-63
2023/01/19 04:44:33;;;;;;;15.30;4.97;;;;;;;15.70;100.00;149982.84;5070406;28;20196;-63
2023/01/19 04:47:00;;;;;;;18.07;5.00;;;;;;;15.64;100.00;149967.63;5071329;28;20184;-64
2023/01/19 04:49:29;;;;;;;31.77;5.77;;;;;;;15.59;100.00;149956.19;5071470;28;20188;-64
2023/01/19 04:51:56;;;;;;;23.03;5.33;;;;;;;15.60;100.00;149958.72;5071252;28;20192;-63
2023/01/19 04:54:23;;;;;;;16.60;4.80;;;;;;;15.64;100.00;149968.88;5070726;28;20237;-64
2023/01/19 04:56:50;;;;;;;20.17;5.70;;;;;;;15.68;100.00;149979.03;5070660;28;20298;-64
2023/01/19 04:59:19;;;;;;;17.50;4.90;;;;;;;15.66;100.00;149972.72;5070764;28;20201;-64
2023/01/19 05:01:46;;;;;;;11.60;4.57;;;;;;;15.68;100.00;149977.75;5070749;28;20184;-64
2023/01/19 05:04:13;;;;;;;25.30;5.77;;;;;;;15.47;100.00;149925.69;5053245;28;20243;-63
2023/01/19 05:06:41;;;;;;;19.67;5.03;;;;;;;15.69;100.00;149981.59;5070688;28;20186;-64
2023/01/19 05:09:11;;;;;;;24.80;5.80;;;;;;;15.74;100.00;149993.00;5070531;28;20571;-63
2023/01/19 05:11:41;;;;;;;22.40;5.03;;;;;;;15.83;100.00;150015.81;5071171;28;20254;-63
2023/01/19 05:14:08;;;;;;;15.10;4.53;;;;;;;15.78;100.00;150004.44;5070896;28;20189;-64
2023/01/19 05:16:35;;;;;;;19.30;5.80;;;;;;;15.76;100.00;149998.06;5070864;28;20305;-65
2023/01/19 05:19:02;;;;;;;21.03;5.03;;;;;;;15.72;100.00;149989.19;5070843;28;20185;-64
2023/01/19 05:21:29;;;;;;;18.67;4.33;;;;;;;15.68;100.00;149979.03;5071091;28;20192;-64
2023/01/19 05:23:58;;;;;;;16.70;4.50;;;;;;;15.73;100.00;149990.47;5074465;28;20268;-64
2023/01/19 05:26:24;;;;;;;18.10;4.07;;;;;;;15.71;100.00;149986.63;5074496;28;20204;-64
2023/01/19 05:28:51;;;;;;;22.47;5.00;;;;;;;15.83;100.00;150017.09;5071532;28;20279;-63
2023/01/19 05:31:18;;;;;;;15.03;5.27;;;;;;;15.80;100.00;150008.22;5074143;28;20185;-64
2023/01/19 05:33:45;;;;;;;15.33;4.43;;;;;;;15.74;100.00;149993.00;5074440;28;20243;-63
2023/01/19 05:36:12;;;;;;;26.27;4.90;;;;;;;15.82;100.00;150013.31;5074021;28;20196;-64
2023/01/19 05:38:39;;;;;;;19.87;5.07;;;;;;;15.91;100.00;150036.16;5074188;28;20642;-64
2023/01/19 05:41:08;;;;;;;16.43;4.70;;;;;;;15.78;100.00;150003.16;5074060;28;20583;-63
2023/01/19 05:43:35;;;;;;;23.60;5.07;;;;;;;15.89;100.00;150032.34;5074291;28;20555;-64
2023/01/19 05:46:06;;;;;;;30.57;4.47;;;;;;;15.91;100.00;150037.41;5074700;28;20584;-63
2023/01/19 05:48:33;;;;;;;22.03;4.67;;;;;;;15.76;100.00;149998.06;5074050;28;20669;-64
2023/01/19 05:51:00;;;;;;;28.17;5.33;;;;;;;15.91;100.00;150037.41;5055956;28;20215;-64
2023/01/19 05:53:28;;;;;;;21.70;5.97;;;;;;;15.83;100.00;150015.81;5073714;28;20219;-64
2023/01/19 05:55:59;;;;;;;29.00;6.70;;;;;;;16.03;100.00;150065.34;5073907;28;20188;-64
2023/01/19 05:58:28;;;;;;;26.60;5.60;;;;;;;16.10;100.00;150084.38;5071474;28;20212;-64
2023/01/19 06:00:55;;;;;;;31.17;5.80;;;;;;;16.12;100.00;150088.22;5073804;28;20185;-64
2023/01/19 06:03:22;;;;;;;19.40;5.53;;;;;;;16.05;100.00;150070.41;5073261;28;20189;-64
2023/01/19 06:05:49;;;;;;;19.93;5.77;;;;;;;16.18;100.00;150103.41;5073337;28;20193;-64
2023/01/19 06:08:15;;;;;;;17.13;4.73;;;;;;;16.06;100.00;150072.94;5055546;28;20188;-63
2023/01/19 06:10:42;;;;;;;21.90;5.20;;;;;;;16.27;100.00;150127.56;5073561;28;20654;-64
2023/01/19 06:13:10;;;;;;;31.90;5.83;;;;;;;16.34;100.00;150144.03;5073265;28;20195;-63
2023/01/19 06:15:38;;;;;;;27.03;5.77;;;;;;;16.26;100.00;150123.72;5073101;28;20185;-63
2023/01/19 06:18:05;;;;;;;20.57;4.70;;;;;;;16.41;100.00;150163.13;5072892;28;20219;-64
2023/01/19 06:20:32;;;;;;;28.53;5.13;;;;;;;16.41;100.00;150161.84;5073120;28;20191;-64
2023/01/19 06:22:58;;;;;;;23.03;5.43;;;;;;;16.31;100.00;150137.69;5072908;28;20192;-64
2023/01/19 06:25:25;;;;;;;21.00;5.00;;;;;;;16.54;100.00;150193.59;5073371;28;20568;-64
2023/01/19 06:27:52;;;;;;;27.03;5.37;;;;;;;16.53;100.00;150191.03;5073189;28;20661;-64
2023/01/19 06:30:19;;;;;;;26.63;5.93;;;;;;;16.57;100.00;150202.50;5073196;28;20196;-64
2023/01/19 06:32:48;;;;;;;24.77;5.60;;;;;;;16.66;100.00;150225.38;5072657;28;20192;-65
2023/01/19 06:35:17;;;;;;;28.60;6.20;;;;;;;16.70;100.00;150234.25;5072116;28;20619;-64
2023/01/19 06:37:44;;;;;;;27.53;5.40;;;;;;;16.62;100.00;150215.22;5072615;28;20209;-64
2023/01/19 06:40:12;;;;;;;33.33;7.60;;;;;;;16.84;100.00;150271.13;5072883;28;20575;-64
2023/01/19 06:42:38;;;;;;;42.97;7.83;;;;;;;16.89;100.00;150283.78;5073013;28;20272;-64
2023/01/19 06:45:09;;;;;;;51.80;8.47;;;;;;;17.03;100.00;150316.81;5072440;28;20197;-63
2023/01/19 06:47:35;;;;;;;36.57;7.47;;;;;;;17.06;100.00;150324.47;5073035;28;20571;-64
2023/01/19 06:50:04;;;;;;;39.63;8.93;;;;;;;17.13;100.00;150343.50;5072409;28;20196;-65
2023/01/19 06:52:31;;;;;;;29.73;7.87;;;;;;;17.17;100.00;150352.41;5072573;28;20540;-65
2023/01/19 06:54:58;;;;;;;29.47;7.73;;;;;;;17.26;100.00;150375.28;5072487;28;20583;-66
2023/01/19 06:57:25;;;;;;;52.20;11.10;;;;;;;17.23;100.00;150367.63;5071852;28;20205;-65
2023/01/19 06:59:52;;;;;;;43.90;10.20;;;;;;;17.23;100.00;150367.63;5072094;28;20185;-65
2023/01/19 07:02:21;;;;;;;40.23;8.23;;;;;;;17.14;100.00;150344.78;5071993;28;20189;-64
2023/01/19 07:04:48;;;;;;;39.67;8.00;;;;;;;17.25;100.00;150374.00;5072369;28;20587;-64
2023/01/19 07:07:17;;;;;;;44.03;7.30;;;;;;;17.27;100.00;150379.06;5072068;28;20195;-64
2023/01/19 07:09:44;;;;;;;29.50;8.03;;;;;;;17.26;100.00;150376.56;5072658;28;20212;-64
2023/01/19 07:12:11;;;;;;;53.13;8.57;;;;;;;17.28;100.00;150380.34;5069805;28;20284;-65
2023/01/19 07:14:38;;;;;;;35.97;7.47;;;;;;;17.28;100.00;150381.59;5072273;28;20619;-64
2023/01/19 07:17:05;;;;;;;56.63;9.77;;;;;;;17.29;100.00;150382.88;5072266;28;20595;-64
2023/01/19 07:19:33;;;;;;;54.83;9.07;;;;;;;17.29;100.00;150384.16;5071813;28;20202;-64
2023/01/19 07:22:01;;;;;;;34.07;7.77;;;;;;;17.29;100.00;150382.88;5072122;28;20292;-64
2023/01/19 07:24:30;;;;;;;44.33;8.10;;;;;;;17.26;100.00;150375.28;5071909;28;20212;-64
2023/01/19 07:26:57;;;;;;;56.77;8.87;;;;;;;17.15;100.00;150348.56;5071794;28;20195;-64
2023/01/19 07:29:24;;;;;;;37.03;7.13;;;;;;;17.01;100.00;150311.75;5071923;28;20228;-65
2023/01/19 07:31:54;;;;;;;33.93;6.47;;;;;;;16.85;100.00;150273.63;5072397;28;20633;-64
2023/01/19 07:34:21;;;;;;;28.37;5.77;;;;;;;16.75;100.00;150248.25;5072192;28;20228;-65
2023/01/19 07:36:49;;;;;;;31.67;5.27;;;;;;;16.74;100.00;150245.69;5072080;28;20195;-65
2023/01/19 07:39:16;;;;;;;38.63;5.13;;;;;;;16.82;100.00;150266.00;5071960;28;20220;-66
2023/01/19 07:41:48;;;;;;;23.10;6.03;;;;;;;16.99;100.00;150306.66;5071878;28;20678;-66
2023/01/19 07:44:15;;;;;;;30.17;6.37;;;;;;;17.01;100.00;150313.03;5071499;28;20192;-66
2023/01/19 07:46:43;;;;;;;26.63;4.83;;;;;;;17.07;100.00;150326.97;5071097;28;20185;-65
2023/01/19 07:49:11;;;;;;;22.70;5.57;;;;;;;17.10;100.00;150335.84;5053283;28;20571;-65
2023/01/19 07:51:38;;;;;;;29.77;6.50;;;;;;;17.28;100.00;150380.34;5071826;28;20246;-66
2023/01/19 07:54:07;;;;;;;22.03;5.87;;;;;;;17.37;100.00;150403.22;5072081;28;20568;-66
2023/01/19 07:56:36;;;;;;;29.67;5.60;;;;;;;17.54;100.00;150445.16;5071620;28;20203;-66
2023/01/19 07:59:08;;;;;;;27.33;6.00;;;;;;;17.56;100.00;150450.25;5071092;28;20304;-66
2023/01/19 08:01:35;;;;;;;22.47;5.93;;;;;;;17.88;100.00;150531.63;5071742;28;20204;-65
2023/01/19 08:04:02;;;;;;;26.23;5.60;;;;;;;18.00;100.00;150562.13;5071755;28;20555;-66
2023/01/19 08:06:35;;;;;;;21.63;5.13;;;;;;;18.39;100.00;150660.03;5071695;28;20223;-66
2023/01/19 08:09:04;;;;;;;26.90;5.90;;;;;;;18.41;100.00;150663.88;5071000;28;20666;-65
2023/01/19 08:11:36;;;;;;;40.70;7.50;;;;;;;18.75;100.00;150749.13;5071634;28;20188;-64
2023/01/19 08:14:04;;;;;;;39.00;6.17;;;;;;;18.88;100.00;150782.19;5071561;28;20181;-65
2023/01/19 08:16:32;;;;;;;38.73;6.77;;;;;;;19.01;100.00;150816.50;5071710;28;20191;-65
2023/01/19 08:18:59;;;;;;;24.40;6.00;;;;;;;19.28;100.00;150883.97;5071229;28;20208;-66
2023/01/19 08:21:27;;;;;;;45.37;6.40;;;;;;;19.19;100.00;150861.03;5071665;28;20193;-66
2023/01/19 08:23:57;;;;;;;40.80;7.03;;;;;;;19.38;100.00;150908.16;5071829;28;20188;-67
2023/01/19 08:26:28;;;;;;;40.00;7.20;;;;;;;19.34;100.00;150897.97;5071464;28;20239;-67
2023/01/19 08:28:58;;;;;;;33.67;6.67;;;;;;;19.53;100.00;150947.63;5071224;28;20187;-68
2023/01/19 08:31:27;;;;;;;36.00;7.20;;;;;;;19.69;100.00;150987.06;5071255;28;20254;-66
2023/01/19 08:33:55;;;;;;;44.27;7.27;;;;;;;19.65;100.00;150975.66;5069182;28;20203;-65
2023/01/19 08:36:23;;;;;;;23.60;6.50;;;;;;;19.53;100.00;150947.63;5067092;28;20232;-63
2023/01/19 08:38:51;;;;;;;32.53;5.70;;;;;;;19.38;100.00;150909.44;5058727;28;20545;-63
2023/01/19 08:41:19;;;;;;;40.97;6.20;;;;;;;19.48;100.00;150934.91;5069635;28;20208;-65
2023/01/19 08:43:46;;;;;;;32.57;6.13;;;;;;;18.91;100.00;150789.81;5080628;28;20200;-64
2023/01/19 08:46:15;;;;;;;32.23;6.53;;;;;;;19.18;100.00;150858.50;5059617;28;20201;-65
2023/01/19 08:48:46;;;;;;;27.80;6.60;;;;;;;18.93;100.00;150796.16;5050734;28;20182;-64
2023/01/19 08:51:14;;;;;;;32.23;5.17;;;;;;;19.09;100.00;150835.63;5050365;28;20296;-65
2023/01/19 08:53:41;;;;;;;22.33;5.20;;;;;;;19.06;100.00;150829.25;5050591;28;20631;-64
2023/01/19 08:56:11;;;;;;;29.13;4.97;;;;;;;19.24;100.00;150872.50;5050529;28;20221;-64
2023/01/19 08:58:39;;;;;;;21.83;5.67;;;;;;;19.32;100.00;150892.84;5054435;28;20520;-64
2023/01/19 09:01:06;;;;;;;20.10;4.30;;;;;;;19.54;100.00;150950.19;5054240;28;20197;-64
2023/01/19 09:03:33;;;;;;;26.30;6.40;;;;;;;19.88;100.00;151034.19;5054934;28;20182;-65
2023/01/19 09:06:02;;;;;;;31.60;5.80;;;;;;;20.08;100.00;151085.09;5064420;28;20239;-65
2023/01/19 09:08:29;;;;;;;27.10;5.33;;;;;;;20.26;100.00;151129.66;5074426;28;20551;-64
2023/01/19 09:10:56;;;;;;;32.37;5.90;;;;;;;20.47;100.00;151184.47;5071069;28;20209;-65
2023/01/19 09:13:22;;;;;;;33.03;5.97;;;;;;;20.56;100.00;151206.13;5060179;28;20545;-65
2023/01/19 09:15:50;;;;;;;20.63;5.23;;;;;;;20.54;100.00;151199.78;5074123;28;20272;-64
2023/01/19 09:18:18;;;;;;;30.30;8.00;;;;;;;20.65;100.00;151227.78;5059115;28;20228;-66
2023/01/19 09:20:48;;;;;;;25.23;5.50;;;;;;;20.46;100.00;151181.91;5054690;28;20200;-64
2023/01/19 09:23:18;;;;;;;20.77;5.83;;;;;;;20.51;100.00;151193.38;5054121;28;20186;-65
2023/01/19 09:25:46;;;;;;;36.40;5.93;;;;;;;20.23;100.00;151122.03;5054409;28;20190;-64
2023/01/19 09:28:16;;;;;;;28.00;5.93;;;;;;;20.44;100.00;151176.84;5054356;28;20273;-65
2023/01/19 09:30:43;;;;;;;37.00;6.37;;;;;;;20.35;100.00;151152.66;5053534;28;20178;-64
2023/01/19 09:33:12;;;;;;;32.70;6.30;;;;;;;20.38;100.00;151160.28;5054143;28;20288;-65
2023/01/19 09:35:40;;;;;;;30.33;6.07;;;;;;;20.25;100.00;151128.38;5035870;28;20700;-65
2023/01/19 09:38:08;;;;;;;28.90;5.57;;;;;;;20.17;100.00;151106.75;5053662;28;20241;-65
2023/01/19 09:40:41;;;;;;;18.43;5.80;;;;;;;20.29;100.00;151137.28;5053609;28;20224;-64
2023/01/19 09:43:13;;;;;;;28.30;6.00;;;;;;;19.99;100.00;151062.19;5055186;28;20578;-64
2023/01/19 09:45:48;;;;;;;17.00;4.90;;;;;;;19.52;100.00;150943.78;5061793;28;20917;-58
2023/01/19 09:48:26;;;;;;;24.67;5.37;;;;;;;19.53;100.00;150947.63;5055916;28;20195;-65
2023/01/19 09:50:58;;;;;;;21.07;4.27;;;;;;;19.47;100.00;150932.38;5073657;28;20192;-64
2023/01/19 09:53:35;;;;;;;16.13;5.20;;;;;;;19.27;100.00;150881.41;5073540;28;20184;-64
2023/01/19 09:56:04;;;;;;;21.37;4.77;;;;;;;19.38;100.00;150909.44;5073387;28;20205;-64
2023/01/19 09:58:31;;;;;;;30.67;5.30;;;;;;;19.39;100.00;150911.94;5073301;28;20205;-64
2023/01/19 10:01:05;;;;;;;23.90;5.57;;;;;;;19.21;100.00;150864.88;5073376;28;20242;-66
2023/01/19 10:03:37;;;;;;;31.73;5.37;;;;;;;19.49;100.00;150937.44;5073353;28;20288;-67
2023/01/19 10:06:09;;;;;;;19.43;5.33;;;;;;;19.47;100.00;150931.09;5073326;28;20287;-64
2023/01/19 10:08:42;;;;;;;21.17;5.33;;;;;;;19.36;100.00;150904.31;5073178;28;20275;-64
2023/01/19 10:11:24;;;;;;;21.67;5.30;;;;;;;19.60;100.00;150965.44;5073380;28;20559;-66
2023/01/19 10:13:53;;;;;;;18.77;4.93;;;;;;;19.48;100.00;150933.63;5073141;28;20185;-65
2023/01/19 10:16:30;;;;;;;23.30;4.57;;;;;;;19.53;100.00;150947.63;5073375;28;20181;-63
2023/01/19 10:19:02;;;;;;;23.97;4.73;;;;;;;19.66;100.00;150978.16;5072723;28;20208;-63
2023/01/19 10:21:33;;;;;;;25.70;4.73;;;;;;;19.71;100.00;150990.91;5073093;28;20181;-64
2023/01/19 10:24:05;;;;;;;14.63;5.23;;;;;;;19.90;100.00;151040.53;5073167;28;20184;-64
2023/01/19 10:26:37;;;;;;;23.43;4.67;;;;;;;19.98;100.00;151059.66;5073102;28;20188;-63
2023/01/19 10:29:07;;;;;;;17.53;4.60;;;;;;;19.98;100.00;151060.94;5072551;28;20181;-64
2023/01/19 10:31:36;;;;;;;15.23;4.60;;;;;;;19.75;100.00;151002.38;5073146;28;20624;-63
2023/01/19 10:34:03;;;;;;;23.00;4.53;;;;;;;19.64;100.00;150973.09;5073003;28;20231;-64
2023/01/19 10:36:35;;;;;;;19.87;4.13;;;;;;;19.54;100.00;150950.19;5072849;28;20511;-63
2023/01/19 10:39:05;;;;;;;19.47;4.90;;;;;;;19.58;100.00;150959.09;5072214;28;20200;-63
2023/01/19 10:41:40;;;;;;;23.90;5.27;;;;;;;19.58;100.00;150959.09;5068732;28;20204;-63
2023/01/19 10:44:09;;;;;;;32.10;4.57;;;;;;;19.58;100.00;150960.38;5072214;28;20196;-64
2023/01/19 10:46:42;;;;;;;25.17;5.63;;;;;;;19.63;100.00;150971.81;5069826;28;20950;-62
2023/01/19 10:49:23;;;;;;;24.30;5.27;;;;;;;19.72;100.00;150993.47;5070365;28;20196;-61
2023/01/19 10:51:50;;;;;;;32.63;5.60;;;;;;;19.67;100.00;150980.72;5070775;28;20562;-61
2023/01/19 10:54:17;;;;;;;26.00;4.67;;;;;;;19.59;100.00;150962.94;5070356;28;20204;-62
2023/01/19 10:56:53;;;;;;;28.20;5.27;;;;;;;19.63;100.00;150970.53;5070896;28;20675;-63
2023/01/19 10:59:32;;;;;;;33.90;5.67;;;;;;;19.33;100.00;150896.69;5070645;28;20204;-62
2023/01/19 11:02:10;;;;;;;29.57;5.33;;;;;;;19.27;100.00;150881.41;5066330;28;20204;-64
2023/01/19 11:04:37;;;;;;;15.33;4.60;;;;;;;19.29;100.00;150886.50;5072326;28;20207;-63
2023/01/19 11:07:15;;;;;;;24.03;4.07;;;;;;;19.15;100.00;150850.88;5072421;28;20615;-62
2023/01/19 11:09:43;;;;;;;23.73;4.83;;;;;;;19.09;100.00;150835.63;5072621;28;20575;-63
2023/01/19 11:12:20;;;;;;;25.73;4.43;;;;;;;19.15;100.00;150850.88;5071164;28;20205;-62
2023/01/19 11:14:48;;;;;;;26.53;4.77;;;;;;;19.09;100.00;150835.63;5072526;28;20288;-62
2023/01/19 11:17:24;;;;;;;23.33;4.37;;;;;;;19.05;100.00;150826.69;5072341;28;20181;-62
2023/01/19 11:19:59;;;;;;;12.77;3.73;;;;;;;18.90;100.00;150787.25;5064472;28;20208;-63
2023/01/19 11:22:29;;;;;;;12.97;3.33;;;;;;;19.04;100.00;150822.91;5071741;28;20211;-63
2023/01/19 11:25:04;;;;;;;10.97;3.33;;;;;;;19.00;100.00;150812.72;5070606;28;20185;-62